Time;durP1;ratioP1;P1;durP2;ratioP2;P2;SDS_P1;SDS_P2;PMS_P1;PMS_P2;Temp;Humidity;BMP_temperature;BMP_pressure;BME280_temperature;BME280_humidity;BME280_pressure;Samples;Min_cycle;Max_cycle;Signal;HPM_P1;HPM_P2
2021/04/21 00:01:42;;;;;;;;;;;16.30;86.30;;;;;;5014000;28;20349;-69
2021/04/21 00:04:09;;;;;;;;;;;16.30;87.90;;;;;;5013960;28;19933;-68
2021/04/21 00:06:36;;;;;;;;;;;16.30;87.30;;;;;;5013892;28;19924;-69
2021/04/21 00:09:07;;;;;;;;;;;16.30;86.30;;;;;;5013587;28;19948;-70
2021/04/21 00:11:34;;;;;;;;;;;16.40;86.70;;;;;;5013827;28;19909;-69
2021/04/21 00:14:01;;;;;;;;;;;16.50;86.80;;;;;;5013702;28;19913;-69
2021/04/21 00:16:29;;;;;;;;;;;16.60;85.40;;;;;;5013850;28;19909;-69
2021/04/21 00:18:56;;;;;;;;;;;16.60;86.90;;;;;;5013604;28;19909;-69
2021/04/21 00:21:23;;;;;;;;;;;16.70;85.70;;;;;;5013712;28;20363;-69
2021/04/21 00:23:51;;;;;;;;;;;16.60;85.50;;;;;;5013494;28;19909;-69
2021/04/21 00:26:19;;;;;;;;;;;16.70;86.20;;;;;;5013292;28;20283;-69
2021/04/21 00:28:46;;;;;;;;;;;16.90;86.50;;;;;;5013250;28;19917;-70
2021/04/21 00:31:14;;;;;;;;;;;17.00;85.00;;;;;;5013379;28;19996;-69
2021/04/21 00:33:42;;;;;;;;;;;17.00;85.90;;;;;;5013374;28;19959;-70
2021/04/21 00:36:12;;;;;;;;;;;17.10;85.40;;;;;;5013559;28;19917;-69
2021/04/21 00:38:39;;;;;;;;;;;17.20;85.50;;;;;;5013340;28;19910;-71
2021/04/21 00:41:24;;;;;;;;;;;17.10;84.30;;;;;;5013244;28;19921;-70
2021/04/21 00:44:12;;;;;;;;;;;17.10;84.20;;;;;;5013159;28;20296;-69
2021/04/21 00:47:11;;;;;;;;;;;17.10;83.30;;;;;;5013056;28;20008;-70
2021/04/21 00:49:47;;;;;;;;;;;17.10;85.30;;;;;;4970444;28;19968;-70
2021/04/21 00:52:27;;;;;;;;;;;17.20;85.00;;;;;;5013134;28;19956;-69
2021/04/21 00:54:57;;;;;;;;;;;17.30;85.00;;;;;;5013148;28;20335;-70
2021/04/21 00:57:25;;;;;;;;;;;17.40;85.10;;;;;;5013044;28;19925;-69
2021/04/21 01:00:12;;;;;;;;;;;17.40;84.20;;;;;;5013293;28;20008;-70
2021/04/21 01:02:44;;;;;;;;;;;17.40;84.40;;;;;;5012924;28;19996;-69
2021/04/21 01:05:13;;;;;;;;;;;17.50;84.90;;;;;;5014637;28;19917;-70
2021/04/21 01:07:42;;;;;;;;;;;17.70;85.20;;;;;;5017168;28;19924;-70
2021/04/21 01:10:11;;;;;;;;;;;17.80;84.50;;;;;;5017036;28;19936;-70
2021/04/21 01:12:38;;;;;;;;;;;18.10;83.60;;;;;;5017049;28;19920;-69
2021/04/21 01:15:06;;;;;;;;;;;18.30;82.80;;;;;;5016930;28;19910;-71
2021/04/21 01:17:33;;;;;;;;;;;18.50;81.30;;;;;;5016748;28;19910;-69
2021/04/21 01:20:00;;;;;;;;;;;18.60;81.50;;;;;;5016790;28;20329;-70
2021/04/21 01:22:27;;;;;;;;;;;18.80;80.80;;;;;;5017168;28;20300;-70
2021/04/21 01:24:53;;;;;;;;;;;18.80;81.60;;;;;;5016654;28;19918;-69
2021/04/21 01:27:34;;;;;;;;;;;18.80;79.90;;;;;;5016753;28;20019;-70
2021/04/21 01:30:01;;;;;;;;;;;18.70;80.50;;;;;;5016654;28;20455;-70
2021/04/21 01:32:29;;;;;;;;;;;18.70;80.60;;;;;;5016651;28;19982;-68
2021/04/21 01:34:56;;;;;;;;;;;18.60;81.40;;;;;;5016247;28;19916;-70
2021/04/21 01:37:25;;;;;;;;;;;18.60;80.20;;;;;;5016567;28;19963;-70
2021/04/21 01:39:57;;;;;;;;;;;18.50;81.50;;;;;;5016240;28;20291;-69
2021/04/21 01:42:27;;;;;;;;;;;18.60;80.90;;;;;;5016376;28;20372;-71
2021/04/21 01:44:55;;;;;;;;;;;18.50;79.60;;;;;;5016171;28;19956;-71
2021/04/21 01:47:23;;;;;;;;;;;18.30;80.30;;;;;;5016387;28;19917;-70
2021/04/21 01:49:49;;;;;;;;;;;18.50;79.70;;;;;;5016358;28;20420;-69
2021/04/21 01:52:36;;;;;;;;;;;18.50;79.40;;;;;;5016309;28;19910;-70
2021/04/21 01:55:26;;;;;;;;;;;18.60;80.30;;;;;;4975825;28;19920;-69
2021/04/21 01:57:57;;;;;;;;;;;18.40;79.90;;;;;;5015851;28;19909;-69
2021/04/21 02:00:24;;;;;;;;;;;18.20;79.30;;;;;;5016297;28;19910;-71
2021/04/21 02:02:56;;;;;;;;;;;18.30;80.20;;;;;;5015775;28;20284;-68
2021/04/21 02:05:32;;;;;;;;;;;18.30;79.60;;;;;;4998517;28;19917;-70
2021/04/21 02:08:04;;;;;;;;;;;18.30;79.30;;;;;;5015988;28;20360;-69
2021/04/21 02:10:40;;;;;;;;;;;18.30;80.70;;;;;;5015984;28;19910;-69
2021/04/21 02:13:25;;;;;;;;;;;18.40;80.00;;;;;;4998079;28;19910;-68
2021/04/21 02:15:57;;;;;;;;;;;18.30;79.30;;;;;;5015545;28;20005;-69
2021/04/21 02:18:42;;;;;;;;;;;18.30;79.80;;;;;;5015612;28;20356;-69
2021/04/21 02:21:28;;;;;;;;;;;18.50;78.80;;;;;;5015740;28;19910;-69
2021/04/21 02:23:55;;;;;;;;;;;18.40;77.70;;;;;;5015653;28;19979;-71
2021/04/21 02:26:25;;;;;;;;;;;18.30;77.70;;;;;;5015768;28;19913;-69
2021/04/21 02:28:59;;;;;;;;;;;18.20;77.90;;;;;;5015471;28;19916;-70
2021/04/21 02:31:29;;;;;;;;;;;18.40;77.40;;;;;;5015663;28;20427;-68
2021/04/21 02:34:10;;;;;;;;;;;18.40;77.90;;;;;;5015665;28;20398;-69
2021/04/21 02:36:50;;;;;;;;;;;18.50;75.90;;;;;;5015640;28;20342;-69
2021/04/21 02:39:37;;;;;;;;;;;18.50;75.30;;;;;;5015456;28;19940;-68
2021/04/21 02:42:09;;;;;;;;;;;18.50;76.10;;;;;;5014689;28;19913;-68
2021/04/21 02:44:39;;;;;;;;;;;18.50;76.20;;;;;;5015519;28;19914;-68
2021/04/21 02:47:38;;;;;;;;;;;18.60;75.90;;;;;;5015150;28;19922;-69
2021/04/21 02:50:24;;;;;;;;;;;18.70;75.40;;;;;;4971808;28;20323;-68
2021/04/21 02:53:03;;;;;;;;;;;18.70;76.00;;;;;;5014927;28;20442;-69
2021/04/21 02:55:38;;;;;;;;;;;18.70;76.40;;;;;;5015093;28;19909;-69
2021/04/21 02:58:23;;;;;;;;;;;18.70;75.30;;;;;;5015053;28;19920;-70
2021/04/21 03:00:54;;;;;;;;;;;18.60;75.50;;;;;;5014898;28;20012;-68
2021/04/21 03:03:36;;;;;;;;;;;18.60;74.70;;;;;;5015053;28;20467;-68
2021/04/21 03:06:10;;;;;;;;;;;18.40;74.30;;;;;;5015039;28;19910;-69
2021/04/21 03:08:37;;;;;;;;;;;18.40;75.80;;;;;;5014851;28;20269;-68
2021/04/21 03:11:14;;;;;;;;;;;18.30;75.20;;;;;;5014555;28;19955;-69
2021/04/21 03:13:45;;;;;;;;;;;18.40;75.70;;;;;;5014812;28;19917;-67
2021/04/21 03:16:14;;;;;;;;;;;18.40;75.20;;;;;;5014816;28;19917;-69
2021/04/21 03:18:42;;;;;;;;;;;18.50;76.30;;;;;;5014694;28;19960;-70
2021/04/21 03:21:20;;;;;;;;;;;18.50;75.60;;;;;;5014621;28;19977;-68
2021/04/21 03:23:48;;;;;;;;;;;18.60;74.40;;;;;;5015076;28;19909;-69
2021/04/21 03:26:17;;;;;;;;;;;18.50;74.90;;;;;;5014808;28;19909;-68
2021/04/21 03:28:47;;;;;;;;;;;18.60;74.90;;;;;;5015462;28;19920;-69
2021/04/21 03:31:14;;;;;;;;;;;18.50;73.60;;;;;;5019253;28;19952;-69
2021/04/21 03:33:45;;;;;;;;;;;18.50;75.40;;;;;;5014733;28;19920;-70
2021/04/21 03:36:17;;;;;;;;;;;18.60;75.60;;;;;;5014750;28;20337;-69
2021/04/21 03:38:45;;;;;;;;;;;18.60;74.30;;;;;;4996706;28;19909;-70
2021/04/21 03:41:13;;;;;;;;;;;18.60;74.10;;;;;;5014577;28;19914;-68
2021/04/21 03:43:40;;;;;;;;;;;18.50;74.30;;;;;;5014280;28;20308;-70
2021/04/21 03:46:08;;;;;;;;;;;18.50;74.80;;;;;;5014264;28;19910;-71
2021/04/21 03:48:35;;;;;;;;;;;18.50;74.30;;;;;;5013744;28;19967;-69
2021/04/21 03:51:02;;;;;;;;;;;18.50;74.80;;;;;;5014350;28;20364;-70
2021/04/21 03:53:31;;;;;;;;;;;18.50;74.40;;;;;;5013278;28;19969;-69
2021/04/21 03:55:59;;;;;;;;;;;18.50;74.70;;;;;;5014160;28;19910;-71
2021/04/21 03:58:27;;;;;;;;;;;18.60;74.90;;;;;;5014048;28;20269;-70
2021/04/21 04:01:02;;;;;;;;;;;18.40;75.50;;;;;;5013970;28;19910;-70
2021/04/21 04:03:31;;;;;;;;;;;18.40;76.30;;;;;;5014214;28;19910;-70
2021/04/21 04:06:07;;;;;;;;;;;18.50;75.10;;;;;;5013515;28;20276;-71
2021/04/21 04:08:38;;;;;;;;;;;18.50;75.20;;;;;;5014358;28;20408;-71
2021/04/21 04:11:05;;;;;;;;;;;18.40;75.80;;;;;;5013721;28;19936;-70
2021/04/21 04:13:33;;;;;;;;;;;18.40;76.40;;;;;;5013744;28;20443;-69
2021/04/21 04:16:00;;;;;;;;;;;18.50;76.50;;;;;;5013959;28;20276;-70
2021/04/21 04:18:29;;;;;;;;;;;18.50;76.60;;;;;;5013909;28;20367;-69
2021/04/21 04:20:56;;;;;;;;;;;18.50;76.80;;;;;;5013628;28;19909;-69
2021/04/21 04:23:24;;;;;;;;;;;18.50;77.50;;;;;;5013746;28;19937;-70
2021/04/21 04:25:52;;;;;;;;;;;18.50;77.30;;;;;;4996078;28;19910;-69
2021/04/21 04:28:19;;;;;;;;;;;18.40;77.50;;;;;;5013518;28;19975;-69
2021/04/21 04:30:46;;;;;;;;;;;18.40;78.40;;;;;;5013815;28;19933;-69
2021/04/21 04:33:15;;;;;;;;;;;18.50;79.40;;;;;;5013649;28;19910;-69
2021/04/21 04:35:41;;;;;;;;;;;18.50;79.10;;;;;;5013589;28;20331;-70
2021/04/21 04:38:10;;;;;;;;;;;18.50;78.40;;;;;;5013582;28;20394;-71
2021/04/21 04:40:36;;;;;;;;;;;18.50;79.10;;;;;;4995644;28;19925;-70
2021/04/21 04:43:03;;;;;;;;;;;18.50;80.40;;;;;;5013328;28;19921;-69
2021/04/21 04:45:30;;;;;;;;;;;18.50;81.40;;;;;;5013494;28;19909;-69
2021/04/21 04:47:58;;;;;;;;;;;18.70;80.10;;;;;;4995644;28;20017;-70
2021/04/21 04:50:25;;;;;;;;;;;18.50;80.00;;;;;;5013444;28;19964;-68
2021/04/21 04:52:54;;;;;;;;;;;18.60;81.10;;;;;;4995540;28;19909;-70
2021/04/21 04:55:21;;;;;;;;;;;18.50;80.30;;;;;;4996258;28;20334;-69
2021/04/21 04:57:49;;;;;;;;;;;18.60;81.10;;;;;;5014785;28;20299;-69
2021/04/21 05:00:17;;;;;;;;;;;18.50;81.10;;;;;;5015008;28;19992;-69
2021/04/21 05:02:50;;;;;;;;;;;18.40;81.10;;;;;;5014808;28;19913;-68
2021/04/21 05:05:17;;;;;;;;;;;18.40;81.10;;;;;;5013333;28;20009;-70
2021/04/21 05:07:51;;;;;;;;;;;18.30;81.00;;;;;;5013197;28;19964;-69
2021/04/21 05:10:21;;;;;;;;;;;18.30;81.70;;;;;;5013074;28;19910;-68
2021/04/21 05:12:49;;;;;;;;;;;18.30;82.10;;;;;;5012822;28;19909;-70
2021/04/21 05:15:47;;;;;;;;;;;18.30;82.00;;;;;;5013292;28;20004;-69
2021/04/21 05:18:19;;;;;;;;;;;18.30;82.60;;;;;;5013283;28;20320;-69
2021/04/21 05:21:04;;;;;;;;;;;18.30;82.80;;;;;;5012911;28;19910;-71
2021/04/21 05:23:49;;;;;;;;;;;18.30;82.50;;;;;;5013223;28;19968;-71
2021/04/21 05:26:16;;;;;;;;;;;18.30;82.60;;;;;;5012796;28;20288;-70
2021/04/21 05:28:56;;;;;;;;;;;18.30;82.90;;;;;;5013162;28;20028;-69
2021/04/21 05:31:29;;;;;;;;;;;18.30;82.50;;;;;;5013145;28;20372;-71
2021/04/21 05:34:14;;;;;;;;;;;18.30;83.10;;;;;;5013204;28;20355;-70
2021/04/21 05:36:58;;;;;;;;;;;18.30;82.30;;;;;;5012964;28;20452;-70
2021/04/21 05:39:37;;;;;;;;;;;18.20;82.90;;;;;;5012829;28;19925;-70
2021/04/21 05:42:22;;;;;;;;;;;18.20;82.90;;;;;;5012787;28;19978;-68
2021/04/21 05:44:54;;;;;;;;;;;18.40;83.30;;;;;;5012790;28;20379;-69
2021/04/21 05:47:39;;;;;;;;;;;18.30;83.00;;;;;;5012788;28;20439;-69
2021/04/21 05:50:11;;;;;;;;;;;18.20;82.80;;;;;;5012922;28;19909;-71
2021/04/21 05:52:56;;;;;;;;;;;18.10;84.00;;;;;;5015003;28;19916;-70
2021/04/21 05:55:41;;;;;;;;;;;18.10;84.00;;;;;;5016340;28;19949;-69
2021/04/21 05:58:23;;;;;;;;;;;18.10;84.80;;;;;;5016294;28;19996;-69
2021/04/21 06:01:08;;;;;;;;;;;18.10;85.90;;;;;;5015516;28;20326;-70
2021/04/21 06:03:36;;;;;;;;;;;18.10;84.70;;;;;;5016379;28;19910;-70
2021/04/21 06:06:03;;;;;;;;;;;18.10;84.90;;;;;;5016164;28;19936;-70
2021/04/21 06:08:30;;;;;;;;;;;18.10;85.00;;;;;;5016319;28;19925;-69
2021/04/21 06:10:57;;;;;;;;;;;18.00;85.90;;;;;;5011972;28;19968;-69
2021/04/21 06:13:28;;;;;;;;;;;17.90;85.60;;;;;;5016288;28;19922;-69
2021/04/21 06:15:55;;;;;;;;;;;17.90;85.30;;;;;;5015959;28;20269;-71
2021/04/21 06:18:22;;;;;;;;;;;17.90;85.50;;;;;;5015801;28;19921;-67
2021/04/21 06:20:49;;;;;;;;;;;17.80;86.20;;;;;;5015772;28;19913;-68
2021/04/21 06:23:20;;;;;;;;;;;17.80;86.40;;;;;;5015511;28;19909;-70
2021/04/21 06:25:49;;;;;;;;;;;17.80;86.80;;;;;;5015884;28;19941;-69
2021/04/21 06:28:22;;;;;;;;;;;17.70;87.50;;;;;;5017351;28;19921;-70
2021/04/21 06:30:51;;;;;;;;;;;17.70;87.40;;;;;;5017586;28;19924;-70
2021/04/21 06:33:17;;;;;;;;;;;17.70;87.50;;;;;;5016910;28;19913;-70
2021/04/21 06:35:44;;;;;;;;;;;17.70;87.70;;;;;;5015865;28;19944;-69
2021/04/21 06:38:11;;;;;;;;;;;17.70;88.00;;;;;;5015659;28;19974;-69
2021/04/21 06:40:39;;;;;;;;;;;17.70;88.40;;;;;;5015401;28;19957;-70
2021/04/21 06:43:06;;;;;;;;;;;17.60;88.80;;;;;;5015493;28;19996;-69
2021/04/21 06:45:36;;;;;;;;;;;17.60;86.80;;;;;;5015500;28;19978;-70
2021/04/21 06:48:06;;;;;;;;;;;17.60;86.90;;;;;;5015557;28;20071;-71
2021/04/21 06:50:34;;;;;;;;;;;17.50;87.50;;;;;;5015399;28;19909;-71
2021/04/21 06:53:11;;;;;;;;;;;17.50;88.10;;;;;;4997355;28;19981;-71
2021/04/21 06:55:38;;;;;;;;;;;17.50;88.80;;;;;;5015401;28;19914;-71
2021/04/21 06:58:28;;;;;;;;;;;17.50;88.90;;;;;;5015201;28;20395;-71
2021/04/21 07:00:54;;;;;;;;;;;17.50;88.90;;;;;;5015319;28;19909;-70
2021/04/21 07:03:21;;;;;;;;;;;17.40;88.80;;;;;;5014988;28;19941;-70
2021/04/21 07:05:49;;;;;;;;;;;17.40;88.60;;;;;;5015259;28;19909;-71
2021/04/21 07:08:19;;;;;;;;;;;17.40;88.30;;;;;;5015104;28;20288;-71
2021/04/21 07:10:46;;;;;;;;;;;17.40;88.50;;;;;;5014823;28;20372;-70
2021/04/21 07:13:23;;;;;;;;;;;17.40;89.00;;;;;;5015094;28;20000;-71
2021/04/21 07:15:50;;;;;;;;;;;17.30;88.50;;;;;;5015239;28;20363;-70
2021/04/21 07:18:18;;;;;;;;;;;17.30;88.00;;;;;;4997291;28;19940;-70
2021/04/21 07:20:46;;;;;;;;;;;17.20;88.20;;;;;;5014649;28;19949;-70
2021/04/21 07:23:15;;;;;;;;;;;17.20;88.50;;;;;;5014813;28;19945;-70
2021/04/21 07:25:45;;;;;;;;;;;17.20;87.50;;;;;;5014704;28;19937;-69
2021/04/21 07:28:12;;;;;;;;;;;17.20;87.90;;;;;;5014633;28;20292;-71
2021/04/21 07:30:39;;;;;;;;;;;17.20;88.80;;;;;;5007721;28;20265;-71
2021/04/21 07:33:06;;;;;;;;;;;17.30;87.90;;;;;;4994783;28;19956;-71
2021/04/21 07:35:33;;;;;;;;;;;17.20;88.10;;;;;;4995029;28;19965;-70
2021/04/21 07:38:00;;;;;;;;;;;17.20;88.10;;;;;;4994928;28;19910;-71
2021/04/21 07:40:31;;;;;;;;;;;17.20;87.60;;;;;;4992629;28;19925;-70
2021/04/21 07:43:04;;;;;;;;;;;17.20;87.70;;;;;;4992507;28;19910;-71
2021/04/21 07:45:48;;;;;;;;;;;17.20;88.20;;;;;;4992751;28;20451;-70
2021/04/21 07:48:33;;;;;;;;;;;17.20;88.30;;;;;;4992758;28;19928;-72
2021/04/21 07:51:26;;;;;;;;;;;17.20;88.70;;;;;;4992465;28;19918;-70
2021/04/21 07:54:03;;;;;;;;;;;17.10;89.20;;;;;;4992453;28;19910;-70
2021/04/21 07:56:35;;;;;;;;;;;17.10;89.00;;;;;;4992791;28;20008;-68
2021/04/21 07:59:15;;;;;;;;;;;17.10;88.70;;;;;;4991823;28;19960;-68
2021/04/21 08:01:42;;;;;;;;;;;17.10;88.70;;;;;;4994569;28;20372;-71
2021/04/21 08:04:23;;;;;;;;;;;17.10;87.90;;;;;;4992584;28;19964;-70
2021/04/21 08:06:51;;;;;;;;;;;17.10;88.30;;;;;;4991972;28;19980;-70
2021/04/21 08:09:18;;;;;;;;;;;17.10;88.20;;;;;;4992372;28;19910;-70
2021/04/21 08:11:45;;;;;;;;;;;17.10;88.90;;;;;;4992393;28;19936;-71
2021/04/21 08:14:12;;;;;;;;;;;17.00;88.40;;;;;;4991840;28;19922;-70
2021/04/21 08:16:39;;;;;;;;;;;17.10;89.40;;;;;;4992308;28;20361;-71
2021/04/21 08:19:13;;;;;;;;;;;17.00;88.90;;;;;;4991980;28;20315;-71
2021/04/21 08:21:41;;;;;;;;;;;17.00;89.30;;;;;;4993000;28;19914;-69
2021/04/21 08:24:14;;;;;;;;;;;17.00;89.50;;;;;;4975088;28;20377;-70
2021/04/21 08:26:49;;;;;;;;;;;17.00;89.90;;;;;;4992256;28;19913;-70
2021/04/21 08:29:16;;;;;;;;;;;17.00;90.30;;;;;;4993074;28;19921;-70
2021/04/21 08:31:54;;;;;;;;;;;17.00;90.50;;;;;;4992355;28;19914;-72
2021/04/21 08:34:20;;;;;;;;;;;16.90;90.80;;;;;;4992186;28;19914;-70
2021/04/21 08:36:50;;;;;;;;;;;16.90;90.90;;;;;;4992404;28;19910;-71
2021/04/21 08:39:17;;;;;;;;;;;16.90;91.10;;;;;;4991893;28;19928;-70
2021/04/21 08:41:44;;;;;;;;;;;16.90;91.20;;;;;;4991901;28;19964;-69
2021/04/21 08:44:12;;;;;;;;;;;16.80;91.20;;;;;;4991809;28;20282;-69
2021/04/21 08:46:39;;;;;;;;;;;16.90;91.80;;;;;;4991598;28;19913;-71
2021/04/21 08:49:09;;;;;;;;;;;16.80;92.00;;;;;;4990147;28;20005;-71
2021/04/21 08:51:36;;;;;;;;;;;16.70;91.50;;;;;;4991725;28;20292;-69
2021/04/21 08:54:06;;;;;;;;;;;16.80;91.60;;;;;;4991931;28;19910;-71
2021/04/21 08:56:34;;;;;;;;;;;16.80;91.60;;;;;;4991365;28;19910;-70
2021/04/21 08:59:00;;;;;;;;;;;16.80;91.60;;;;;;4991188;28;20426;-70
2021/04/21 09:01:27;;;;;;;;;;;16.80;91.70;;;;;;4990408;28;19909;-71
2021/04/21 09:03:54;;;;;;;;;;;16.80;91.90;;;;;;4991693;28;19992;-70
2021/04/21 09:06:20;;;;;;;;;;;16.80;92.00;;;;;;4992844;28;19957;-69
2021/04/21 09:08:48;;;;;;;;;;;16.80;92.20;;;;;;4993481;28;19914;-68
2021/04/21 09:11:15;;;;;;;;;;;16.80;92.40;;;;;;4993084;28;19910;-70
2021/04/21 09:13:42;;;;;;;;;;;16.80;92.70;;;;;;4993633;28;20357;-69
2021/04/21 09:16:08;;;;;;;;;;;16.70;92.80;;;;;;4993493;28;19910;-70
2021/04/21 09:18:35;;;;;;;;;;;16.80;92.80;;;;;;4993464;28;19964;-70
2021/04/21 09:21:04;;;;;;;;;;;16.70;93.00;;;;;;4993378;28;19996;-69
2021/04/21 09:23:44;;;;;;;;;;;16.70;93.10;;;;;;4993604;28;19914;-70
2021/04/21 09:26:24;;;;;;;;;;;16.60;93.50;;;;;;4995380;28;19910;-69
2021/04/21 09:28:55;;;;;;;;;;;16.60;93.30;;;;;;4998987;28;19929;-70
2021/04/21 09:31:23;;;;;;;;;;;16.70;93.50;;;;;;4998974;28;19917;-70
2021/04/21 09:34:09;;;;;;;;;;;16.70;93.50;;;;;;4997219;28;19910;-69
2021/04/21 09:36:38;;;;;;;;;;;16.60;93.60;;;;;;4997059;28;19917;-70
2021/04/21 09:39:13;;;;;;;;;;;16.60;94.10;;;;;;4996385;28;19922;-70
2021/04/21 09:41:41;;;;;;;;;;;16.60;94.00;;;;;;4997074;28;19976;-71
2021/04/21 09:44:11;;;;;;;;;;;16.60;94.20;;;;;;4997088;28;19965;-69
2021/04/21 09:46:42;;;;;;;;;;;16.50;94.30;;;;;;4996767;28;20435;-71
2021/04/21 09:49:27;;;;;;;;;;;16.50;94.70;;;;;;4997011;28;20046;-70
2021/04/21 09:52:01;;;;;;;;;;;16.40;94.70;;;;;;4997272;28;19916;-69
2021/04/21 09:54:42;;;;;;;;;;;16.50;94.80;;;;;;4996425;28;19917;-70
2021/04/21 09:57:12;;;;;;;;;;;16.50;94.90;;;;;;4996817;28;19913;-70
2021/04/21 09:59:40;;;;;;;;;;;16.40;94.80;;;;;;4996693;28;19914;-69
2021/04/21 10:02:24;;;;;;;;;;;16.50;95.10;;;;;;4997148;28;19956;-71
2021/04/21 10:04:51;;;;;;;;;;;16.50;95.20;;;;;;4995671;28;19914;-69
2021/04/21 10:07:21;;;;;;;;;;;16.50;95.20;;;;;;4996746;28;20373;-68
2021/04/21 10:09:48;;;;;;;;;;;16.50;95.40;;;;;;4994795;28;19918;-68
2021/04/21 10:12:22;;;;;;;;;;;16.50;95.40;;;;;;4996885;28;19910;-69
2021/04/21 10:14:49;;;;;;;;;;;16.40;95.50;;;;;;4996770;28;20365;-70
2021/04/21 10:17:16;;;;;;;;;;;16.40;95.80;;;;;;4996539;28;20360;-68
2021/04/21 10:19:43;;;;;;;;;;;16.40;95.80;;;;;;4996866;28;20275;-70
2021/04/21 10:22:13;;;;;;;;;;;16.40;96.00;;;;;;4996478;28;20257;-68
2021/04/21 10:24:40;;;;;;;;;;;16.40;96.30;;;;;;4995931;28;19909;-69
2021/04/21 10:27:07;;;;;;;;;;;16.40;96.40;;;;;;4994958;28;19945;-68
2021/04/21 10:29:35;;;;;;;;;;;16.40;96.50;;;;;;4996577;28;19917;-70
2021/04/21 10:32:05;;;;;;;;;;;16.40;96.60;;;;;;4996355;28;20284;-68
2021/04/21 10:34:32;;;;;;;;;;;16.40;96.80;;;;;;4996235;28;19910;-70
2021/04/21 10:36:59;;;;;;;;;;;16.30;96.80;;;;;;4995796;28;19909;-70
2021/04/21 10:39:34;;;;;;;;;;;16.30;97.10;;;;;;4994808;28;20000;-70
2021/04/21 10:42:01;;;;;;;;;;;16.30;97.30;;;;;;4996240;28;19988;-70
2021/04/21 10:44:31;;;;;;;;;;;16.30;97.40;;;;;;4996099;28;19937;-71
2021/04/21 10:47:00;;;;;;;;;;;16.20;97.60;;;;;;4995681;28;19924;-70
2021/04/21 10:49:36;;;;;;;;;;;16.30;97.70;;;;;;4994810;28;19985;-70
2021/04/21 10:52:14;;;;;;;;;;;16.20;97.80;;;;;;4994886;28;20280;-70
2021/04/21 10:54:41;;;;;;;;;;;16.20;97.90;;;;;;4996306;28;19914;-69
2021/04/21 10:57:23;;;;;;;;;;;16.20;98.10;;;;;;4998462;28;19916;-68
2021/04/21 11:00:08;;;;;;;;;;;16.30;98.20;;;;;;4996994;28;19956;-71
2021/04/21 11:02:41;;;;;;;;;;;16.30;98.30;;;;;;4995714;28;19910;-72
2021/04/21 11:05:08;;;;;;;;;;;16.20;98.50;;;;;;4995044;28;19953;-70
2021/04/21 11:07:35;;;;;;;;;;;16.30;98.60;;;;;;4995087;28;19917;-69
2021/04/21 11:10:03;;;;;;;;;;;16.30;98.60;;;;;;4995363;28;19910;-70
2021/04/21 11:12:48;;;;;;;;;;;16.30;98.70;;;;;;4995581;28;19992;-70
2021/04/21 11:15:33;;;;;;;;;;;16.30;98.70;;;;;;4995505;28;20288;-71
2021/04/21 11:18:25;;;;;;;;;;;16.30;98.80;;;;;;4995606;28;19917;-70
2021/04/21 11:20:53;;;;;;;;;;;16.20;99.00;;;;;;4992444;28;19968;-70
2021/04/21 11:23:38;;;;;;;;;;;16.20;99.10;;;;;;4995221;28;19910;-70
2021/04/21 11:26:27;;;;;;;;;;;16.20;99.20;;;;;;4995360;28;20365;-72
2021/04/21 11:29:01;;;;;;;;;;;16.10;99.20;;;;;;4985968;28;19925;-71
2021/04/21 11:31:48;;;;;;;;;;;16.10;99.30;;;;;;4994057;28;19913;-71
2021/04/21 11:34:21;;;;;;;;;;;16.00;99.60;;;;;;4995073;28;20368;-71
2021/04/21 11:36:50;;;;;;;;;;;16.00;99.70;;;;;;4994965;28;19913;-72
2021/04/21 11:39:35;;;;;;;;;;;16.00;99.60;;;;;;4994789;28;19914;-71
2021/04/21 11:42:20;;;;;;;;;;;16.00;99.80;;;;;;4995103;28;19914;-71
2021/04/21 11:44:57;;;;;;;;;;;16.00;99.90;;;;;;4994762;28;19910;-70
2021/04/21 11:47:38;;;;;;;;;;;16.00;99.90;;;;;;4994800;28;19945;-72
2021/04/21 11:50:12;;;;;;;;;;;16.00;99.90;;;;;;4994960;28;19917;-70
2021/04/21 11:52:39;;;;;;;;;;;16.00;99.90;;;;;;4994985;28;19910;-70
2021/04/21 11:55:07;;;;;;;;;;;16.00;99.90;;;;;;4994315;28;19910;-70
2021/04/21 11:57:35;;;;;;;;;;;15.90;99.90;;;;;;4993580;28;20384;-71
2021/04/21 12:00:03;;;;;;;;;;;16.00;99.90;;;;;;4994474;28;20238;-71
2021/04/21 12:02:33;;;;;;;;;;;15.90;99.90;;;;;;4994632;28;19963;-70
2021/04/21 12:05:00;;;;;;;;;;;15.90;99.90;;;;;;4993320;28;20365;-69
2021/04/21 12:07:27;;;;;;;;;;;15.90;99.90;;;;;;4994622;28;20059;-70
2021/04/21 12:09:55;;;;;;;;;;;15.90;99.90;;;;;;4994466;28;20269;-72
2021/04/21 12:12:25;;;;;;;;;;;16.00;99.90;;;;;;4994472;28;19910;-70
2021/04/21 12:15:08;;;;;;;;;;;15.90;99.70;;;;;;4994275;28;19910;-70
2021/04/21 12:17:35;;;;;;;;;;;15.90;99.50;;;;;;4994684;28;19910;-70
2021/04/21 12:20:02;;;;;;;;;;;15.90;99.50;;;;;;4996261;28;20365;-69
2021/04/21 12:22:41;;;;;;;;;;;15.80;99.60;;;;;;4996365;28;19913;-69
2021/04/21 12:25:09;;;;;;;;;;;15.80;99.30;;;;;;4996663;28;19910;-70
2021/04/21 12:27:36;;;;;;;;;;;15.70;98.50;;;;;;4995048;28;19918;-69
2021/04/21 12:30:13;;;;;;;;;;;15.80;98.20;;;;;;4994251;28;19910;-70
2021/04/21 12:32:40;;;;;;;;;;;15.70;97.90;;;;;;4994148;28;20000;-68
2021/04/21 12:35:07;;;;;;;;;;;15.70;98.20;;;;;;4993560;28;20331;-68
2021/04/21 12:37:35;;;;;;;;;;;15.70;97.90;;;;;;4993993;28;19956;-69
2021/04/21 12:40:01;;;;;;;;;;;15.60;97.80;;;;;;4993835;28;19928;-68
2021/04/21 12:42:28;;;;;;;;;;;15.60;98.00;;;;;;4993483;28;19917;-68
2021/04/21 12:44:55;;;;;;;;;;;15.60;98.20;;;;;;4993942;28;19997;-69
2021/04/21 12:47:30;;;;;;;;;;;15.50;98.20;;;;;;4994058;28;19945;-69
2021/04/21 12:50:09;;;;;;;;;;;15.50;98.20;;;;;;5005893;28;19910;-68
2021/04/21 12:52:35;;;;;;;;;;;15.40;98.50;;;;;;4995865;28;19913;-68
2021/04/21 12:55:02;;;;;;;;;;;15.40;98.60;;;;;;5013084;28;19909;-69
2021/04/21 12:57:45;;;;;;;;;;;15.30;98.30;;;;;;5013423;28;19909;-68
2021/04/21 13:00:12;;;;;;;;;;;15.30;98.50;;;;;;5013156;28;19945;-67
2021/04/21 13:02:47;;;;;;;;;;;15.30;98.50;;;;;;5013240;28;19917;-67
2021/04/21 13:05:19;;;;;;;;;;;15.20;98.40;;;;;;5012720;28;19916;-68
2021/04/21 13:07:47;;;;;;;;;;;15.20;98.60;;;;;;5013109;28;20372;-67
2021/04/21 13:10:15;;;;;;;;;;;15.00;98.70;;;;;;5013290;28;20321;-70
2021/04/21 13:12:42;;;;;;;;;;;15.00;99.00;;;;;;5013023;28;19914;-69
2021/04/21 13:15:13;;;;;;;;;;;14.90;99.00;;;;;;5013112;28;19913;-69
2021/04/21 13:17:50;;;;;;;;;;;14.90;99.10;;;;;;5012960;28;19956;-71
2021/04/21 13:20:17;;;;;;;;;;;14.90;99.40;;;;;;5012512;28;19976;-71
2021/04/21 13:22:44;;;;;;;;;;;14.90;99.50;;;;;;5012881;28;19910;-71
2021/04/21 13:25:16;;;;;;;;;;;14.90;99.10;;;;;;5012983;28;19913;-70
2021/04/21 13:27:43;;;;;;;;;;;14.90;99.20;;;;;;5012906;28;20388;-72
2021/04/21 13:30:12;;;;;;;;;;;14.80;99.20;;;;;;5013022;28;19949;-71
2021/04/21 13:32:42;;;;;;;;;;;14.80;99.20;;;;;;5013165;28;19913;-71
2021/04/21 13:35:09;;;;;;;;;;;14.80;99.40;;;;;;5012353;28;20017;-70
2021/04/21 13:37:36;;;;;;;;;;;14.80;99.70;;;;;;5012744;28;19909;-72
2021/04/21 13:40:10;;;;;;;;;;;14.80;99.50;;;;;;5012552;28;20282;-72
2021/04/21 13:42:38;;;;;;;;;;;14.70;99.50;;;;;;5012662;28;20295;-69
2021/04/21 13:45:06;;;;;;;;;;;14.70;99.60;;;;;;5012573;28;19910;-69
2021/04/21 13:47:32;;;;;;;;;;;14.70;99.50;;;;;;5013436;28;19928;-72
2021/04/21 13:49:59;;;;;;;;;;;14.60;99.60;;;;;;5015462;28;19916;-71
2021/04/21 13:52:26;;;;;;;;;;;14.60;99.60;;;;;;5016642;28;19955;-71
2021/04/21 13:54:53;;;;;;;;;;;14.60;99.70;;;;;;5015955;28;19963;-69
2021/04/21 13:57:20;;;;;;;;;;;14.50;99.70;;;;;;5012816;28;19909;-69
2021/04/21 13:59:46;;;;;;;;;;;14.40;99.90;;;;;;5012734;28;19909;-69
2021/04/21 14:02:13;;;;;;;;;;;14.40;99.90;;;;;;5012794;28;19910;-70
2021/04/21 14:04:41;;;;;;;;;;;14.40;99.90;;;;;;5012615;28;19925;-69
2021/04/21 14:07:07;;;;;;;;;;;14.40;99.90;;;;;;5012326;28;20024;-70
2021/04/21 14:09:35;;;;;;;;;;;14.30;99.90;;;;;;5012664;28;19963;-70
2021/04/21 14:12:01;;;;;;;;;;;14.30;99.90;;;;;;5012642;28;19996;-69
2021/04/21 14:14:28;;;;;;;;;;;14.30;99.90;;;;;;5016042;28;20006;-69
2021/04/21 14:16:55;;;;;;;;;;;14.30;99.90;;;;;;5016067;28;19909;-70
2021/04/21 14:19:22;;;;;;;;;;;14.30;99.90;;;;;;5016560;28;19909;-70
2021/04/21 14:21:49;;;;;;;;;;;14.30;99.90;;;;;;5016032;28;19909;-70
2021/04/21 14:24:15;;;;;;;;;;;14.30;99.80;;;;;;5015774;28;20292;-69
2021/04/21 14:26:43;;;;;;;;;;;14.20;99.90;;;;;;5015734;28;19987;-70
2021/04/21 14:29:10;;;;;;;;;;;14.10;99.90;;;;;;5015918;28;19960;-70
2021/04/21 14:31:37;;;;;;;;;;;14.10;99.90;;;;;;5015962;28;19956;-69
2021/04/21 14:34:04;;;;;;;;;;;14.10;99.90;;;;;;4998245;28;19932;-70
2021/04/21 14:36:32;;;;;;;;;;;14.10;99.90;;;;;;5015689;28;20287;-70
2021/04/21 14:39:00;;;;;;;;;;;14.10;99.90;;;;;;5015190;28;20351;-70
2021/04/21 14:41:27;;;;;;;;;;;14.10;99.90;;;;;;5015639;28;20364;-71